Time;durP1;ratioP1;P1;durP2;ratioP2;P2;SDS_P1;SDS_P2;PMS_P1;PMS_P2;Temp;Humidity;BMP_temperature;BMP_pressure;BME280_temperature;BME280_humidity;BME280_pressure;Samples;Min_cycle;Max_cycle;Signal;HPM_P1;HPM_P2
2024/03/10 00:01:22;;;;;;;;;;;;;;;5.95;84.13;99455.00;6184771;23;19939;-77
2024/03/10 00:03:47;;;;;;;;;;;;;;;5.95;83.86;99455.81;6184759;23;19915;-79
2024/03/10 00:06:14;;;;;;;;;;;;;;;5.92;84.02;99456.22;6177821;23;19916;-76
2024/03/10 00:08:43;;;;;;;;;;;;;;;5.91;84.13;99450.06;6154376;23;19920;-76
2024/03/10 00:11:21;;;;;;;;;;;;;;;5.90;83.70;99443.06;6155628;23;19916;-78
2024/03/10 00:17:16;;;;;;;;;;;;;;;5.79;84.91;99443.66;6154741;23;19924;-78
2024/03/10 00:19:48;;;;;;;;;;;;;;;5.79;84.44;99440.16;6066532;23;19920;-78
2024/03/10 00:22:19;;;;;;;;;;;;;;;5.71;85.06;99454.50;6144795;23;19959;-78
2024/03/10 00:25:23;;;;;;;;;;;;;;;5.66;85.47;99456.94;6136586;23;19940;-77
2024/03/10 00:31:11;;;;;;;;;;;;;;;5.53;86.49;99457.75;6154098;23;19923;-78
2024/03/10 00:33:52;;;;;;;;;;;;;;;5.48;87.04;99452.97;6155616;23;20356;-78
2024/03/10 00:39:29;;;;;;;;;;;;;;;5.31;88.08;99455.97;6152408;23;19916;-77
2024/03/10 00:45:17;;;;;;;;;;;;;;;5.18;89.72;99450.56;6152893;23;19959;-77
2024/03/10 00:56:57;;;;;;;;;;;;;;;5.15;90.23;99456.28;6154983;23;20238;-77
2024/03/10 00:59:31;;;;;;;;;;;;;;;5.13;90.79;99456.50;6153567;23;19913;-79
2024/03/10 01:02:27;;;;;;;;;;;;;;;5.13;90.96;99458.31;6153607;23;19913;-76
2024/03/10 01:08:08;;;;;;;;;;;;;;;5.09;91.73;99447.22;6092207;23;19917;-75
2024/03/10 01:10:35;;;;;;;;;;;;;;;5.02;92.24;99446.38;6100649;23;19941;-75
2024/03/10 01:13:00;;;;;;;;;;;;;;;5.02;92.84;99451.72;6154325;23;19948;-75
2024/03/10 01:15:25;;;;;;;;;;;;;;;5.03;92.80;99452.53;6160955;23;19912;-75
2024/03/10 01:17:51;;;;;;;;;;;;;;;4.96;93.28;99457.81;6167383;23;20359;-75
2024/03/10 01:20:16;;;;;;;;;;;;;;;4.97;93.08;99449.63;6155957;23;20338;-75
2024/03/10 01:22:42;;;;;;;;;;;;;;;4.94;93.59;99435.84;6155241;23;20450;-75
2024/03/10 01:25:07;;;;;;;;;;;;;;;4.94;93.61;99446.53;6154453;23;19950;-75
2024/03/10 01:27:34;;;;;;;;;;;;;;;4.91;94.19;99433.56;6154011;23;19955;-75
2024/03/10 01:29:59;;;;;;;;;;;;;;;4.89;94.63;99430.28;6153685;23;19920;-75
2024/03/10 01:32:25;;;;;;;;;;;;;;;4.89;94.33;99419.59;6154644;23;19956;-75
2024/03/10 01:34:57;;;;;;;;;;;;;;;4.89;94.61;99414.28;6152606;23;19963;-75
2024/03/10 01:37:22;;;;;;;;;;;;;;;4.90;94.27;99408.75;6154306;23;20704;-75
2024/03/10 01:39:48;;;;;;;;;;;;;;;4.90;94.33;99408.75;6154234;23;19913;-75
2024/03/10 01:42:16;;;;;;;;;;;;;;;4.95;93.91;99413.50;6154799;23;20233;-75
2024/03/10 01:44:41;;;;;;;;;;;;;;;4.95;94.24;99413.50;6166113;23;19940;-76
2024/03/10 01:47:07;;;;;;;;;;;;;;;4.93;94.29;99399.53;6157737;23;19913;-75
2024/03/10 01:49:33;;;;;;;;;;;;;;;4.92;94.46;99404.06;6127993;23;19916;-75
2024/03/10 01:51:59;;;;;;;;;;;;;;;4.88;94.40;99402.81;6153909;23;20318;-75
2024/03/10 01:54:25;;;;;;;;;;;;;;;4.86;95.07;99392.31;6127222;23;19920;-75
2024/03/10 01:56:50;;;;;;;;;;;;;;;4.84;95.38;99393.53;6153373;23;20337;-75
2024/03/10 01:59:16;;;;;;;;;;;;;;;4.83;95.12;99389.22;6128440;23;20031;-75
2024/03/10 02:01:41;;;;;;;;;;;;;;;4.81;95.80;99392.09;6154585;23;19974;-75
2024/03/10 02:04:09;;;;;;;;;;;;;;;4.81;95.73;99394.75;6154301;23;20282;-75
2024/03/10 02:06:35;;;;;;;;;;;;;;;4.80;95.58;99394.94;6154904;23;19912;-76
2024/03/10 02:09:03;;;;;;;;;;;;;;;4.77;96.13;99395.31;6159472;23;20329;-75
2024/03/10 02:11:28;;;;;;;;;;;;;;;4.76;96.18;99397.19;6167827;23;19917;-75
2024/03/10 02:13:54;;;;;;;;;;;;;;;4.73;96.48;99394.91;6156174;23;19912;-76
2024/03/10 02:16:19;;;;;;;;;;;;;;;4.78;96.25;99386.31;6156675;23;19938;-76
2024/03/10 02:18:44;;;;;;;;;;;;;;;4.72;97.00;99393.25;6155183;23;19995;-76
2024/03/10 02:21:11;;;;;;;;;;;;;;;4.72;96.99;99381.78;6154028;23;20052;-76
2024/03/10 02:23:42;;;;;;;;;;;;;;;4.70;97.13;99365.97;6154785;23;19913;-76
2024/03/10 02:26:08;;;;;;;;;;;;;;;4.69;96.71;99367.81;6157490;23;19917;-75
2024/03/10 02:28:35;;;;;;;;;;;;;;;4.69;97.27;99372.31;6157253;23;19912;-75
2024/03/10 02:47:12;;;;;;;;;;;;;;;4.66;97.38;99368.19;6157250;23;20397;-76
2024/03/10 02:47:31;;;;;;;;;;;;;;;4.61;97.87;99359.97;6154949;23;20448;-75
2024/03/10 02:49:56;;;;;;;;;;;;;;;4.59;97.93;99359.31;6155880;23;19913;-76
2024/03/10 02:52:22;;;;;;;;;;;;;;;4.58;98.16;99360.38;6155660;23;20310;-75
2024/03/10 02:54:47;;;;;;;;;;;;;;;4.56;98.23;99351.75;6156873;23;20359;-75
2024/03/10 02:57:13;;;;;;;;;;;;;;;4.54;98.38;99348.44;6156841;23;20322;-74
2024/03/10 02:59:38;;;;;;;;;;;;;;;4.58;98.19;99346.19;6153162;23;20353;-75
2024/03/10 03:02:03;;;;;;;;;;;;;;;4.58;97.72;99344.38;6152840;23;20230;-75
2024/03/10 03:04:28;;;;;;;;;;;;;;;4.61;97.60;99332.50;6152940;23;19960;-75
2024/03/10 03:06:54;;;;;;;;;;;;;;;4.62;97.57;99326.16;6151390;23;19982;-75
2024/03/10 03:09:23;;;;;;;;;;;;;;;4.62;97.27;99334.13;6154625;23;19917;-75
2024/03/10 03:11:48;;;;;;;;;;;;;;;4.61;97.55;99319.97;6154499;23;19912;-75
2024/03/10 03:14:22;;;;;;;;;;;;;;;4.62;97.94;99320.81;6154034;23;20055;-75
2024/03/10 03:16:48;;;;;;;;;;;;;;;4.64;97.31;99321.44;6154702;23;20051;-75
2024/03/10 03:19:13;;;;;;;;;;;;;;;4.60;97.59;99326.31;6155396;23;19943;-75
2024/03/10 03:21:41;;;;;;;;;;;;;;;4.60;97.55;99322.84;6152896;23;19964;-75
2024/03/10 03:24:12;;;;;;;;;;;;;;;4.60;97.34;99315.66;6155377;23;19912;-74
2024/03/10 03:26:38;;;;;;;;;;;;;;;4.59;97.64;99324.69;6153671;23;19923;-75
2024/03/10 03:29:04;;;;;;;;;;;;;;;4.56;98.15;99314.44;6154776;23;19996;-75
2024/03/10 03:31:30;;;;;;;;;;;;;;;4.56;98.00;99314.44;6153742;23;20384;-75
2024/03/10 03:33:56;;;;;;;;;;;;;;;4.55;97.37;99312.78;6154237;23;19944;-75
2024/03/10 03:36:21;;;;;;;;;;;;;;;4.55;97.79;99313.59;6154421;23;19992;-75
2024/03/10 03:38:46;;;;;;;;;;;;;;;4.53;98.16;99320.16;6154643;23;20316;-75
2024/03/10 03:41:20;;;;;;;;;;;;;;;4.55;97.65;99328.78;6154431;23;19912;-75
2024/03/10 03:43:45;;;;;;;;;;;;;;;4.49;98.02;99314.38;6154237;23;19955;-75
2024/03/10 03:46:11;;;;;;;;;;;;;;;4.47;98.52;99318.25;6154647;23;20326;-74
2024/03/10 03:48:39;;;;;;;;;;;;;;;4.44;98.39;99318.63;6153697;23;20337;-75
2024/03/10 03:51:05;;;;;;;;;;;;;;;4.46;98.15;99321.94;6154731;23;19985;-75
2024/03/10 03:53:30;;;;;;;;;;;;;;;4.45;98.35;99312.28;6154758;23;19947;-75
2024/03/10 03:55:55;;;;;;;;;;;;;;;4.46;97.98;99306.78;6154282;23;20004;-76
2024/03/10 03:58:23;;;;;;;;;;;;;;;4.45;97.78;99309.63;6154240;23;20322;-75
2024/03/10 04:00:48;;;;;;;;;;;;;;;4.39;98.41;99308.56;6154053;23;19932;-75
2024/03/10 04:03:13;;;;;;;;;;;;;;;4.36;98.52;99309.78;6154152;23;19916;-75
2024/03/10 04:05:40;;;;;;;;;;;;;;;4.37;98.48;99307.94;6154414;23;19913;-74
2024/03/10 04:08:06;;;;;;;;;;;;;;;4.41;98.02;99298.53;6153681;23;19917;-75
2024/03/10 04:10:31;;;;;;;;;;;;;;;4.42;98.15;99308.19;6154972;23;19913;-75
2024/03/10 04:12:56;;;;;;;;;;;;;;;4.39;97.79;99304.06;6153836;23;20310;-75
2024/03/10 04:15:22;;;;;;;;;;;;;;;4.40;97.21;99294.22;6153646;23;20412;-74
2024/03/10 04:17:47;;;;;;;;;;;;;;;4.38;97.21;99294.44;6153925;23;20203;-75
2024/03/10 04:20:13;;;;;;;;;;;;;;;4.38;97.25;99291.78;6153000;23;20293;-75
2024/03/10 04:22:39;;;;;;;;;;;;;;;4.42;97.06;99280.69;6152755;23;20336;-74
2024/03/10 04:25:16;;;;;;;;;;;;;;;4.44;96.18;99292.00;6154927;23;19913;-75
2024/03/10 04:27:42;;;;;;;;;;;;;;;4.42;96.44;99278.03;6153946;23;20004;-76
2024/03/10 04:30:07;;;;;;;;;;;;;;;4.40;96.13;99279.09;6152645;23;19913;-75
2024/03/10 04:32:33;;;;;;;;;;;;;;;4.40;96.58;99267.59;6155126;23;19958;-75
2024/03/10 04:34:58;;;;;;;;;;;;;;;4.36;96.44;99279.66;6153202;23;19936;-75
2024/03/10 04:37:27;;;;;;;;;;;;;;;4.33;95.95;99267.56;6153282;23;19923;-75
2024/03/10 04:39:52;;;;;;;;;;;;;;;4.28;96.30;99266.50;6154830;23;19919;-75
2024/03/10 04:42:17;;;;;;;;;;;;;;;4.27;95.95;99286.97;6154051;23;19987;-75
2024/03/10 04:44:44;;;;;;;;;;;;;;;4.22;96.36;99279.56;6152722;23;19920;-75
2024/03/10 04:47:09;;;;;;;;;;;;;;;4.18;96.78;99286.28;6154724;23;19921;-75
2024/03/10 04:49:34;;;;;;;;;;;;;;;4.19;96.84;99287.13;6154174;23;19916;-75
2024/03/10 04:52:00;;;;;;;;;;;;;;;4.17;97.40;99289.16;6154060;23;20041;-75
2024/03/10 04:54:25;;;;;;;;;;;;;;;4.16;97.72;99284.84;6155377;23;19995;-76
2024/03/10 04:56:50;;;;;;;;;;;;;;;4.13;98.00;99277.25;6158952;23;19922;-75
2024/03/10 04:59:17;;;;;;;;;;;;;;;4.07;98.33;99269.00;6156349;23;19920;-74
2024/03/10 05:01:46;;;;;;;;;;;;;;;4.04;98.43;99279.22;6155886;23;19912;-75
2024/03/10 05:04:11;;;;;;;;;;;;;;;4.03;98.16;99259.78;6154897;23;19921;-75
2024/03/10 05:06:37;;;;;;;;;;;;;;;4.03;98.10;99269.59;6153037;23;19991;-75
2024/03/10 05:09:03;;;;;;;;;;;;;;;4.03;98.93;99266.94;6155030;23;19957;-75
2024/03/10 05:11:28;;;;;;;;;;;;;;;4.01;98.44;99259.16;6154887;23;19939;-76
2024/03/10 05:13:58;;;;;;;;;;;;;;;4.00;99.08;99252.16;6153000;23;20326;-76
2024/03/10 05:16:24;;;;;;;;;;;;;;;3.96;99.26;99256.22;6152846;23;19959;-76
2024/03/10 05:18:49;;;;;;;;;;;;;;;3.95;98.92;99251.91;6153924;23;19912;-76
2024/03/10 05:21:15;;;;;;;;;;;;;;;3.98;98.49;99248.88;6154271;23;19994;-76
2024/03/10 05:23:40;;;;;;;;;;;;;;;3.96;99.43;99250.09;6164217;23;19913;-75
2024/03/10 05:26:06;;;;;;;;;;;;;;;3.88;99.71;99265.19;6158296;23;19919;-76
2024/03/10 05:28:32;;;;;;;;;;;;;;;3.87;99.91;99257.41;6154125;23;19967;-76
2024/03/10 05:30:57;;;;;;;;;;;;;;;3.87;99.84;99258.22;6155018;23;19933;-76
2024/03/10 05:33:25;;;;;;;;;;;;;;;3.78;100.00;99252.19;6153183;23;20313;-76
2024/03/10 05:35:50;;;;;;;;;;;;;;;3.83;99.86;99253.47;6154012;23;19921;-77
2024/03/10 05:38:16;;;;;;;;;;;;;;;3.82;100.00;99255.28;6155695;23;19919;-76
2024/03/10 05:40:41;;;;;;;;;;;;;;;3.79;100.00;99245.88;6155343;23;19948;-78
2024/03/10 05:43:06;;;;;;;;;;;;;;;3.73;100.00;99257.25;6156241;23;19916;-78
2024/03/10 05:45:32;;;;;;;;;;;;;;;3.70;100.00;99252.34;6156393;23;19932;-78
2024/03/10 05:47:57;;;;;;;;;;;;;;;3.70;100.00;99252.34;6156267;23;19924;-77
2024/03/10 05:50:22;;;;;;;;;;;;;;;3.62;100.00;99255.13;6165312;23;19912;-78
2024/03/10 05:52:48;;;;;;;;;;;;;;;3.60;100.00;99257.16;6163856;23;19920;-78
2024/03/10 05:55:13;;;;;;;;;;;;;;;3.63;100.00;99256.78;6159864;23;19912;-78
2024/03/10 05:57:41;;;;;;;;;;;;;;;3.56;100.00;99269.19;6158119;23;19913;-77
2024/03/10 06:00:19;;;;;;;;;;;;;;;3.55;100.00;99257.72;6158880;23;19919;-77
2024/03/10 06:02:48;;;;;;;;;;;;;;;3.51;100.00;99253.00;6157328;23;19916;-78
2024/03/10 06:05:13;;;;;;;;;;;;;;;3.46;100.00;99258.84;6159028;23;19928;-78
2024/03/10 06:07:39;;;;;;;;;;;;;;;3.45;100.00;99263.38;6161562;23;19923;-77
2024/03/10 06:10:06;;;;;;;;;;;;;;;3.42;100.00;99250.44;6163619;23;19917;-78
2024/03/10 06:26:28;;;;;;;;;;;;;;;3.43;100.00;99235.31;6161374;23;20038;-78
2024/03/10 06:31:58;;;;;;;;;;;;;;;3.42;100.00;99239.00;6151531;23;19947;-77
2024/03/10 06:37:21;;;;;;;;;;;;;;;3.43;100.00;99244.13;6158363;23;20043;-77
2024/03/10 06:39:55;;;;;;;;;;;;;;;3.42;100.00;99255.75;6159314;23;20070;-77
2024/03/10 06:42:29;;;;;;;;;;;;;;;3.45;100.00;99257.22;6155156;23;19956;-77
2024/03/10 06:45:00;;;;;;;;;;;;;;;3.43;100.00;99264.59;6152930;23;19913;-78
2024/03/10 06:47:26;;;;;;;;;;;;;;;3.43;100.00;99272.56;6154753;23;19920;-77
2024/03/10 06:49:57;;;;;;;;;;;;;;;3.45;100.00;99265.19;6153862;23;19917;-77
2024/03/10 06:52:28;;;;;;;;;;;;;;;3.45;100.00;99268.69;6153586;23;20061;-77
2024/03/10 06:54:55;;;;;;;;;;;;;;;3.51;100.00;99280.41;6154665;23;19913;-78
2024/03/10 06:57:27;;;;;;;;;;;;;;;3.60;100.00;99284.59;6144516;23;19968;-78
2024/03/10 06:59:53;;;;;;;;;;;;;;;3.70;100.00;99276.31;6154202;23;19913;-78
2024/03/10 07:02:38;;;;;;;;;;;;;;;3.86;100.00;99269.88;6153186;23;20357;-78
2024/03/10 07:05:04;;;;;;;;;;;;;;;4.73;97.64;99266.13;6152235;23;19992;-77
2024/03/10 07:07:30;;;;;;;;;;;;;;;4.99;93.73;99276.09;6154357;23;19992;-77
2024/03/10 07:09:58;;;;;;;;;;;;;;;4.82;94.13;99265.75;6153445;23;20051;-78
2024/03/10 07:12:48;;;;;;;;;;;;;;;4.62;95.43;99278.97;6152896;23;19916;-79
2024/03/10 07:21:25;;;;;;;;;;;;;;;4.46;96.83;99276.63;6062824;23;20339;-79
2024/03/10 07:23:51;;;;;;;;;;;;;;;4.58;96.35;99280.41;6063157;23;20386;-76
2024/03/10 07:26:16;;;;;;;;;;;;;;;4.55;96.96;99286.94;6113628;23;19913;-76
2024/03/10 07:28:42;;;;;;;;;;;;;;;4.59;95.77;99276.69;6153090;23;20309;-76
2024/03/10 07:31:29;;;;;;;;;;;;;;;4.66;95.24;99282.91;6151900;23;20230;-85
2024/03/10 07:33:57;;;;;;;;;;;;;;;4.61;95.76;99285.31;6093827;23;20004;-78
2024/03/10 07:36:37;;;;;;;;;;;;;;;4.69;95.77;99284.34;6094520;23;19988;-79
2024/03/10 07:39:18;;;;;;;;;;;;;;;4.79;94.81;99286.66;6080350;23;19968;-79
2024/03/10 07:41:43;;;;;;;;;;;;;;;4.77;95.21;99288.69;6094317;23;20247;-78
2024/03/10 07:44:09;;;;;;;;;;;;;;;4.89;94.28;99276.44;6091740;23;20342;-78
2024/03/10 07:46:53;;;;;;;;;;;;;;;4.83;94.17;99291.41;6092408;23;20315;-78
2024/03/10 07:49:31;;;;;;;;;;;;;;;4.92;93.70;99289.41;6092743;23;19980;-78
2024/03/10 07:54:34;;;;;;;;;;;;;;;5.00;93.84;99289.22;6149558;23;19971;-78
2024/03/10 07:56:59;;;;;;;;;;;;;;;5.35;92.87;99288.31;6152435;23;20356;-78
2024/03/10 07:59:25;;;;;;;;;;;;;;;5.96;89.14;99301.75;6152612;23;19912;-78
2024/03/10 08:01:50;;;;;;;;;;;;;;;6.32;86.16;99301.34;6151969;23;19912;-78
2024/03/10 08:04:18;;;;;;;;;;;;;;;6.41;85.47;99288.56;6151387;23;19913;-77
2024/03/10 08:06:43;;;;;;;;;;;;;;;6.14;86.10;99287.78;6148230;23;20349;-77
2024/03/10 08:09:24;;;;;;;;;;;;;;;5.89;87.48;99297.22;6152492;23;20220;-78
2024/03/10 08:11:51;;;;;;;;;;;;;;;5.82;87.27;99293.72;6152157;23;19976;-77
2024/03/10 08:14:20;;;;;;;;;;;;;;;5.56;89.20;99287.31;6153559;23;19920;-77
2024/03/10 08:16:48;;;;;;;;;;;;;;;5.57;89.21;99290.78;6152740;23;19967;-76
2024/03/10 08:19:15;;;;;;;;;;;;;;;5.66;89.67;99294.09;6153684;23;19924;-82
2024/03/10 08:21:43;;;;;;;;;;;;;;;5.72;90.21;99291.47;6154137;23;19913;-82
2024/03/10 08:24:09;;;;;;;;;;;;;;;5.86;88.63;99297.63;6153496;23;19912;-75
2024/03/10 08:26:38;;;;;;;;;;;;;;;6.00;88.13;99292.31;6153153;23;19913;-77
2024/03/10 08:29:04;;;;;;;;;;;;;;;6.43;86.62;99291.88;6153058;23;19971;-77
2024/03/10 08:31:30;;;;;;;;;;;;;;;7.19;82.76;99294.91;6153101;23;20234;-76
2024/03/10 08:33:55;;;;;;;;;;;;;;;7.88;78.70;99313.03;6154169;23;19920;-77
2024/03/10 08:36:20;;;;;;;;;;;;;;;9.02;73.61;99305.78;6158498;23;19912;-77
2024/03/10 08:38:47;;;;;;;;;;;;;;;9.64;70.23;99313.66;6156129;23;19916;-77
2024/03/10 08:41:13;;;;;;;;;;;;;;;10.54;64.82;99315.56;6152278;23;19916;-77
2024/03/10 08:43:38;;;;;;;;;;;;;;;10.59;63.56;99319.19;6152016;23;19962;-77
2024/03/10 08:46:03;;;;;;;;;;;;;;;11.05;62.11;99300.50;6152758;23;19923;-77
2024/03/10 08:48:29;;;;;;;;;;;;;;;10.90;61.96;99313.66;6151869;23;19916;-77
2024/03/10 08:50:54;;;;;;;;;;;;;;;11.34;61.00;99303.22;6151666;23;20043;-78
2024/03/10 08:53:19;;;;;;;;;;;;;;;11.48;59.11;99300.22;6152889;23;19916;-78
2024/03/10 08:55:47;;;;;;;;;;;;;;;10.73;62.45;99314.38;6125341;23;19940;-77
2024/03/10 08:58:17;;;;;;;;;;;;;;;11.07;60.14;99309.19;6150884;23;20450;-77
2024/03/10 09:00:43;;;;;;;;;;;;;;;11.28;58.98;99309.59;6150467;23;20063;-75
2024/03/10 09:03:08;;;;;;;;;;;;;;;11.06;60.13;99304.84;6159784;23;19932;-78
2024/03/10 09:05:35;;;;;;;;;;;;;;;10.12;64.78;99293.06;6159339;23;19916;-77
2024/03/10 09:08:00;;;;;;;;;;;;;;;10.32;64.29;99284.66;6154451;23;20041;-77
2024/03/10 09:10:25;;;;;;;;;;;;;;;11.11;61.57;99297.94;6153782;23;19948;-77
2024/03/10 09:12:53;;;;;;;;;;;;;;;11.83;59.47;99308.16;6152299;23;20068;-78
2024/03/10 09:15:24;;;;;;;;;;;;;;;12.25;55.99;99306.16;6153887;23;19913;-77
2024/03/10 09:17:49;;;;;;;;;;;;;;;12.25;55.87;99320.44;6154364;23;20279;-77
2024/03/10 09:20:15;;;;;;;;;;;;;;;11.92;56.63;99308.56;6152404;23;20010;-77
2024/03/10 09:22:40;;;;;;;;;;;;;;;11.93;56.77;99307.50;6155173;23;20430;-75
2024/03/10 09:25:07;;;;;;;;;;;;;;;11.88;57.32;99293.91;6153127;23;19913;-76
2024/03/10 09:27:32;;;;;;;;;;;;;;;11.73;58.09;99294.50;6154637;23;19917;-76
2024/03/10 09:29:58;;;;;;;;;;;;;;;11.45;58.10;99296.16;6158618;23;19960;-76
2024/03/10 09:32:26;;;;;;;;;;;;;;;11.52;58.42;99296.00;6165356;23;19920;-77
2024/03/10 09:34:52;;;;;;;;;;;;;;;11.54;57.53;99299.28;6156563;23;19913;-76
2024/03/10 09:37:17;;;;;;;;;;;;;;;11.22;58.72;99305.16;6157901;23;20349;-76
2024/03/10 09:39:45;;;;;;;;;;;;;;;10.94;60.15;99298.69;6153492;23;20322;-76
2024/03/10 09:42:14;;;;;;;;;;;;;;;10.58;60.87;99301.41;6154519;23;20000;-76
2024/03/10 09:44:39;;;;;;;;;;;;;;;10.55;61.93;99293.81;6156332;23;19913;-77
2024/03/10 09:47:06;;;;;;;;;;;;;;;10.65;61.59;99295.91;6130554;23;19920;-77
2024/03/10 09:49:32;;;;;;;;;;;;;;;10.72;61.55;99277.75;6158922;23;20329;-76
2024/03/10 09:51:57;;;;;;;;;;;;;;;11.49;59.15;99288.38;6160487;23;19913;-75
2024/03/10 09:54:22;;;;;;;;;;;;;;;11.94;57.62;99284.03;6132951;23;20058;-77
2024/03/10 09:56:50;;;;;;;;;;;;;;;12.41;54.69;99285.59;6167494;23;19913;-76
2024/03/10 09:59:27;;;;;;;;;;;;;;;12.26;55.58;99278.91;6161424;23;19913;-76
2024/03/10 10:01:53;;;;;;;;;;;;;;;12.25;54.76;99271.88;6155398;23;19920;-76
2024/03/10 10:04:19;;;;;;;;;;;;;;;11.31;57.79;99275.94;6129408;23;19913;-77
2024/03/10 10:06:45;;;;;;;;;;;;;;;10.93;59.47;99264.72;6132862;23;19920;-77
2024/03/10 10:09:13;;;;;;;;;;;;;;;10.50;61.04;99276.72;6157901;23;19953;-77
2024/03/10 10:11:41;;;;;;;;;;;;;;;10.12;63.63;99260.81;6157367;23;20405;-77
2024/03/10 10:14:23;;;;;;;;;;;;;;;10.48;61.95;99255.47;6172785;23;20003;-77
2024/03/10 10:16:59;;;;;;;;;;;;;;;10.73;61.13;99265.09;6188776;23;19912;-77
2024/03/10 10:19:27;;;;;;;;;;;;;;;10.89;61.28;99258.19;6186104;23;19916;-77
2024/03/10 10:21:53;;;;;;;;;;;;;;;11.11;60.49;99254.84;6168601;23;19957;-77
2024/03/10 10:24:24;;;;;;;;;;;;;;;11.34;59.07;99238.56;6182162;23;20254;-77
2024/03/10 10:27:02;;;;;;;;;;;;;;;11.68;58.56;99238.59;6180761;23;19916;-77
2024/03/10 10:30:09;;;;;;;;;;;;;;;12.27;55.58;99233.84;6173031;23;19947;-77
2024/03/10 10:32:34;;;;;;;;;;;;;;;12.58;54.22;99232.38;6181314;23;19932;-77
2024/03/10 10:35:00;;;;;;;;;;;;;;;12.06;55.86;99221.97;6181478;23;19948;-78
2024/03/10 10:37:34;;;;;;;;;;;;;;;11.88;56.84;99220.31;6171437;23;19948;-78
2024/03/10 10:39:59;;;;;;;;;;;;;;;11.83;55.98;99221.03;6150891;23;19916;-77
2024/03/10 10:42:36;;;;;;;;;;;;;;;11.57;57.02;99226.03;6155856;23;19920;-78
2024/03/10 10:45:01;;;;;;;;;;;;;;;12.05;56.51;99221.16;6155860;23;19920;-77
2024/03/10 10:47:46;;;;;;;;;;;;;;;12.64;53.90;99216.25;6180833;23;19974;-77
2024/03/10 10:50:20;;;;;;;;;;;;;;;13.23;51.85;99228.28;6151020;23;19924;-76
2024/03/10 10:52:52;;;;;;;;;;;;;;;14.17;50.08;99231.53;6117639;23;19971;-77
2024/03/10 11:00:17;;;;;;;;;;;;;;;13.31;51.61;99230.50;6149699;23;19931;-77
2024/03/10 11:03:04;;;;;;;;;;;;;;;13.24;52.09;99243.44;6125106;23;19913;-79
2024/03/10 11:05:30;;;;;;;;;;;;;;;13.06;53.52;99258.88;6150753;23;20016;-76
2024/03/10 11:07:55;;;;;;;;;;;;;;;13.38;52.41;99257.31;6151545;23;20016;-76
2024/03/10 11:10:42;;;;;;;;;;;;;;;13.38;50.98;99243.81;6149858;23;19992;-76
2024/03/10 11:13:08;;;;;;;;;;;;;;;13.47;51.44;99251.25;6135534;23;19912;-76
2024/03/10 11:15:33;;;;;;;;;;;;;;;13.25;51.68;99256.66;6149906;23;20299;-76
2024/03/10 11:18:19;;;;;;;;;;;;;;;13.42;51.53;99248.47;6148999;23;20380;-78
2024/03/10 11:20:44;;;;;;;;;;;;;;;13.47;50.61;99253.94;6150794;23;20278;-75
2024/03/10 11:23:10;;;;;;;;;;;;;;;14.08;49.40;99239.31;6124418;23;19919;-76
2024/03/10 11:25:35;;;;;;;;;;;;;;;14.46;48.48;99252.00;6148958;23;19944;-76
2024/03/10 11:28:02;;;;;;;;;;;;;;;14.86;47.41;99242.44;6150302;23;19940;-75
2024/03/10 11:30:44;;;;;;;;;;;;;;;15.14;46.16;99243.09;6151474;23;19913;-76
2024/03/10 11:33:11;;;;;;;;;;;;;;;14.83;47.87;99253.78;6150535;23;20012;-76
2024/03/10 11:35:36;;;;;;;;;;;;;;;15.03;46.35;99254.97;6152924;23;19999;-75
2024/03/10 11:38:04;;;;;;;;;;;;;;;15.21;45.98;99257.19;6151941;23;20018;-76
2024/03/10 11:40:30;;;;;;;;;;;;;;;15.03;45.84;99254.97;6125542;23;19913;-77
2024/03/10 11:43:01;;;;;;;;;;;;;;;14.24;48.00;99239.41;6152384;23;19920;-77
2024/03/10 11:45:29;;;;;;;;;;;;;;;14.00;48.10;99230.84;6152186;23;20349;-77
2024/03/10 11:47:54;;;;;;;;;;;;;;;14.18;48.79;99235.03;6151724;23;20031;-77
2024/03/10 11:50:19;;;;;;;;;;;;;;;14.61;47.66;99219.56;6153521;23;20015;-77
2024/03/10 11:52:46;;;;;;;;;;;;;;;14.58;47.59;99225.50;6150457;23;19913;-77
2024/03/10 11:55:13;;;;;;;;;;;;;;;14.86;46.80;99226.19;6151664;23;19996;-75
2024/03/10 11:57:39;;;;;;;;;;;;;;;14.85;45.60;99229.97;6151424;23;20247;-76
2024/03/10 12:00:05;;;;;;;;;;;;;;;14.96;46.04;99237.06;6179561;23;19967;-75
2024/03/10 12:02:30;;;;;;;;;;;;;;;14.65;46.66;99203.59;6181388;23;19922;-77
2024/03/10 12:04:55;;;;;;;;;;;;;;;13.55;49.70;99219.41;6179916;23;19960;-77
2024/03/10 12:07:22;;;;;;;;;;;;;;;14.04;49.25;99226.53;6153601;23;19923;-77
2024/03/10 12:10:32;;;;;;;;;;;;;;;13.21;50.56;99219.59;6180207;23;20385;-78
2024/03/10 12:13:29;;;;;;;;;;;;;;;13.67;50.43;99233.56;6061390;23;19937;-76
2024/03/10 12:15:55;;;;;;;;;;;;;;;13.52;50.05;99219.94;6058930;23;19922;-76
2024/03/10 12:18:55;;;;;;;;;;;;;;;13.35;50.69;99220.81;6181590;23;19912;-76
2024/03/10 12:21:58;;;;;;;;;;;;;;;12.51;53.84;99212.88;6186547;23;19912;-76
2024/03/10 12:24:48;;;;;;;;;;;;;;;12.75;53.14;99218.00;6181083;23;19958;-77
2024/03/10 12:41:28;;;;;;;;;;;;;;;14.17;50.63;99199.03;6149271;23;20254;-76
2024/03/10 12:44:24;;;;;;;;;;;;;;;15.15;48.65;99212.19;6152215;23;19939;-77
2024/03/10 12:46:52;;;;;;;;;;;;;;;15.44;46.92;99208.97;6161835;23;19995;-76
2024/03/10 12:49:27;;;;;;;;;;;;;;;15.15;46.74;99202.16;6161488;23;19924;-76
2024/03/10 12:51:52;;;;;;;;;;;;;;;15.01;46.82;99201.84;6152308;23;20313;-77
2024/03/10 12:54:17;;;;;;;;;;;;;;;14.84;47.49;99193.13;6150936;23;19912;-75
2024/03/10 12:56:43;;;;;;;;;;;;;;;14.35;49.08;99200.47;6149075;23;19969;-76
2024/03/10 12:59:08;;;;;;;;;;;;;;;13.85;51.21;99185.56;6150258;23;20340;-76
2024/03/10 13:01:36;;;;;;;;;;;;;;;13.69;52.43;99184.63;6150341;23;19917;-76
2024/03/10 13:04:01;;;;;;;;;;;;;;;13.84;51.25;99186.63;6148622;23;19908;-76
2024/03/10 13:06:27;;;;;;;;;;;;;;;13.91;51.27;99189.94;6152193;23;19919;-76
2024/03/10 13:08:53;;;;;;;;;;;;;;;13.88;51.40;99190.47;6150809;23;20277;-77
2024/03/10 13:11:23;;;;;;;;;;;;;;;13.55;52.32;99170.75;6150462;23;19912;-76
2024/03/10 13:13:49;;;;;;;;;;;;;;;13.25;53.35;99189.09;6154938;23;19912;-76
2024/03/10 13:16:17;;;;;;;;;;;;;;;12.78;54.43;99198.63;6161369;23;19939;-76
2024/03/10 13:18:42;;;;;;;;;;;;;;;12.57;55.70;99181.38;6156533;23;19913;-77
2024/03/10 13:24:10;;;;;;;;;;;;;;;12.79;55.61;99178.66;6151194;23;19959;-77
2024/03/10 13:26:42;;;;;;;;;;;;;;;12.86;55.81;99179.28;6150019;23;19913;-76
2024/03/10 13:29:09;;;;;;;;;;;;;;;13.12;54.69;99163.31;6153163;23;20007;-75
2024/03/10 13:31:44;;;;;;;;;;;;;;;13.76;52.80;99166.31;6150577;23;19983;-77
2024/03/10 13:34:34;;;;;;;;;;;;;;;14.14;50.96;99172.50;6151174;23;19913;-77
2024/03/10 13:37:05;;;;;;;;;;;;;;;13.94;51.16;99174.00;6155760;23;20506;-77
2024/03/10 13:39:33;;;;;;;;;;;;;;;13.56;53.44;99169.69;6158995;23;20284;-76
2024/03/10 13:41:58;;;;;;;;;;;;;;;13.87;52.78;99172.59;6187760;23;19987;-76
2024/03/10 13:44:26;;;;;;;;;;;;;;;13.90;52.99;99175.59;6191645;23;20317;-76
2024/03/10 13:46:56;;;;;;;;;;;;;;;14.31;51.58;99199.38;6170933;23;19913;-77
2024/03/10 13:49:27;;;;;;;;;;;;;;;14.08;51.22;99184.34;6181753;23;19924;-77
2024/03/10 13:52:02;;;;;;;;;;;;;;;13.92;51.82;99178.06;6163765;23;19923;-77
2024/03/10 13:54:28;;;;;;;;;;;;;;;13.42;53.24;99175.50;6179492;23;19920;-77
2024/03/10 13:56:59;;;;;;;;;;;;;;;13.59;53.27;99177.28;6180428;23;19927;-77
2024/03/10 14:02:38;;;;;;;;;;;;;;;13.12;54.82;99167.91;6181603;23;20050;-78
2024/03/10 14:05:14;;;;;;;;;;;;;;;12.77;55.16;99159.19;6180388;23;19916;-77
2024/03/10 14:10:58;;;;;;;;;;;;;;;12.52;58.30;99160.53;6178559;23;19977;-77
2024/03/10 14:13:29;;;;;;;;;;;;;;;12.64;57.29;99148.78;6133926;23;947735;-77
2024/03/10 14:16:27;;;;;;;;;;;;;;;12.50;57.93;99141.06;6161524;23;19917;-77
2024/03/10 14:18:52;;;;;;;;;;;;;;;12.41;58.23;99142.56;6146192;23;19917;-77
2024/03/10 14:21:43;;;;;;;;;;;;;;;12.07;58.70;99137.28;6150224;23;19947;-77
2024/03/10 14:24:21;;;;;;;;;;;;;;;11.92;59.57;99129.75;6146034;23;19936;-76
2024/03/10 14:26:47;;;;;;;;;;;;;;;12.19;59.99;99140.66;6149547;23;19963;-77
2024/03/10 14:29:21;;;;;;;;;;;;;;;12.18;59.52;99149.81;6149172;23;19912;-76
2024/03/10 14:31:47;;;;;;;;;;;;;;;12.37;60.16;99144.13;6148567;23;19916;-77
2024/03/10 14:34:24;;;;;;;;;;;;;;;12.40;60.40;99143.63;6149180;23;19920;-77
2024/03/10 14:36:56;;;;;;;;;;;;;;;12.33;60.26;99148.41;6149939;23;19943;-76
2024/03/10 14:39:21;;;;;;;;;;;;;;;12.28;59.77;99149.97;6149329;23;20003;-77